createdAt,value
2022-11-02T00:00:11.693Z,73.64
2022-11-02T00:01:11.812Z,73.74
2022-11-02T00:02:11.806Z,73.84
2022-11-02T00:03:11.896Z,73.94
2022-11-02T00:04:11.865Z,73.84
2022-11-02T00:05:11.874Z,73.84
2022-11-02T00:06:11.877Z,73.74
2022-11-02T00:07:11.894Z,73.84
2022-11-02T00:08:11.956Z,74.04
2022-11-02T00:09:12.029Z,73.84
2022-11-02T00:10:12.065Z,73.94
2022-11-02T00:11:12.073Z,73.84
2022-11-02T00:12:12.137Z,73.84
2022-11-02T00:13:12.158Z,73.94
2022-11-02T00:14:12.186Z,74.04
2022-11-02T00:15:12.199Z,74.04
2022-11-02T00:16:12.246Z,74.35
2022-11-02T00:17:12.278Z,74.15
2022-11-02T00:18:12.256Z,74.38
2022-11-02T00:19:12.268Z,74.28
2022-11-02T00:20:12.259Z,74.25
2022-11-02T00:21:12.298Z,74.15
2022-11-02T00:22:12.360Z,74.25
2022-11-02T00:23:12.396Z,74.28
2022-11-02T00:24:12.460Z,74.38
2022-11-02T00:25:12.440Z,74.38
2022-11-02T00:26:12.480Z,74.38
2022-11-02T00:27:12.519Z,74.49
2022-11-02T00:28:12.529Z,74.49
2022-11-02T00:29:12.560Z,74.58
2022-11-02T00:30:12.634Z,74.49
2022-11-02T00:31:12.670Z,74.58
2022-11-02T00:32:12.651Z,74.69
2022-11-02T00:33:12.641Z,74.79
2022-11-02T00:34:12.662Z,74.90
2022-11-02T00:35:12.670Z,74.90
2022-11-02T00:36:12.663Z,74.99
2022-11-02T00:37:12.836Z,74.99
2022-11-02T00:38:12.702Z,74.99
2022-11-02T00:39:12.762Z,75.10
2022-11-02T00:40:12.804Z,74.99
2022-11-02T00:41:12.849Z,74.99
2022-11-02T00:42:12.885Z,74.99
2022-11-02T00:43:12.945Z,75.10
2022-11-02T00:44:12.964Z,74.99
2022-11-02T00:45:12.956Z,74.99
2022-11-02T00:46:12.952Z,74.99
2022-11-02T00:47:12.957Z,74.90
2022-11-02T00:48:13.007Z,74.99
2022-11-02T00:49:12.996Z,74.90
2022-11-02T00:50:13.046Z,74.90
2022-11-02T00:51:13.088Z,74.99
2022-11-02T00:52:13.149Z,74.99
2022-11-02T00:53:13.157Z,74.90
2022-11-02T00:54:13.177Z,74.90
2022-11-02T00:55:13.180Z,74.90
2022-11-02T00:56:13.219Z,74.99
2022-11-02T00:57:13.275Z,74.99
2022-11-02T00:58:13.328Z,74.99
2022-11-02T00:59:13.359Z,74.90
2022-11-02T01:00:13.376Z,74.79
2022-11-02T01:01:13.541Z,74.90
2022-11-02T01:02:13.674Z,74.79
2022-11-02T01:03:13.458Z,74.90
2022-11-02T01:04:13.451Z,74.90
2022-11-02T01:05:13.503Z,74.79
2022-11-02T01:06:13.541Z,74.99
2022-11-02T01:07:13.532Z,74.90
2022-11-02T01:08:13.521Z,74.90
2022-11-02T01:09:13.571Z,74.90
2022-11-02T01:10:13.631Z,74.90
2022-11-02T01:11:13.660Z,74.76
2022-11-02T01:12:13.673Z,74.65
2022-11-02T01:13:13.661Z,74.76
2022-11-02T01:14:13.685Z,74.76
2022-11-02T01:15:13.733Z,74.76
2022-11-02T01:16:13.790Z,74.86
2022-11-02T01:17:13.842Z,74.99
2022-11-02T01:18:13.849Z,74.99
2022-11-02T01:19:13.887Z,75.10
2022-11-02T01:20:13.912Z,75.10
2022-11-02T01:21:13.959Z,75.10
2022-11-02T01:22:14.026Z,74.99
2022-11-02T01:23:14.007Z,75.06
2022-11-02T01:24:14.035Z,75.10
2022-11-02T01:25:14.085Z,75.20
2022-11-02T01:26:14.155Z,75.40
2022-11-02T01:27:14.224Z,75.40
2022-11-02T01:28:14.249Z,75.51
2022-11-02T01:29:14.306Z,75.60
2022-11-02T01:30:14.307Z,76.12
2022-11-02T01:31:14.378Z,76.32
2022-11-02T01:32:14.446Z,76.73
2022-11-02T01:33:14.455Z,76.93
2022-11-02T01:34:14.504Z,77.24
2022-11-02T01:35:14.538Z,77.75
2022-11-02T01:36:14.621Z,78.05
2022-11-02T01:37:14.543Z,78.66
2022-11-02T01:38:14.589Z,79.07
2022-11-02T01:39:14.660Z,79.11
2022-11-02T01:40:14.730Z,79.21
2022-11-02T01:41:14.744Z,79.21
2022-11-02T01:42:14.733Z,79.21
2022-11-02T01:43:14.742Z,79.41
2022-11-02T01:44:14.791Z,79.21
2022-11-02T01:45:14.861Z,79.41
2022-11-02T01:46:14.862Z,79.52
2022-11-02T01:47:14.980Z,79.82
2022-11-02T01:48:14.980Z,80.54
2022-11-02T01:49:15.033Z,79.82
2022-11-02T01:50:15.034Z,79.72
2022-11-02T01:51:15.104Z,80.02
2022-11-02T01:52:15.152Z,79.93
2022-11-02T01:53:15.205Z,79.72
2022-11-02T01:54:15.212Z,79.72
2022-11-02T01:55:15.260Z,80.33
2022-11-02T01:56:15.373Z,81.15
2022-11-02T01:57:15.354Z,81.96
2022-11-02T01:58:15.396Z,82.10
2022-11-02T01:59:15.449Z,82.71
2022-11-02T02:00:15.485Z,83.73
2022-11-02T02:01:23.322Z,84.25
2022-11-02T02:02:15.640Z,84.86
2022-11-02T02:03:15.595Z,85.27
2022-11-02T02:04:15.638Z,86.63
2022-11-02T02:05:15.693Z,87.24
2022-11-02T02:06:15.745Z,87.45
2022-11-02T02:07:15.790Z,87.18
2022-11-02T02:08:15.830Z,87.29
2022-11-02T02:09:15.881Z,87.90
2022-11-02T02:10:15.917Z,87.79
2022-11-02T02:11:15.972Z,88.10
2022-11-02T02:12:16.029Z,87.79
2022-11-02T02:13:16.070Z,87.79
2022-11-02T02:14:16.121Z,87.59
2022-11-02T02:15:16.172Z,87.79
2022-11-02T02:16:16.233Z,88.00
2022-11-02T02:17:16.271Z,88.20
2022-11-02T02:18:16.311Z,88.00
2022-11-02T02:19:16.371Z,88.20
2022-11-02T02:20:16.423Z,88.61
2022-11-02T02:21:16.461Z,88.00
2022-11-02T02:22:16.501Z,88.10
2022-11-02T02:23:16.534Z,88.41
2022-11-02T02:24:16.602Z,88.00
2022-11-02T02:25:16.652Z,88.10
2022-11-02T02:26:16.721Z,87.90
2022-11-02T02:27:16.713Z,87.96
2022-11-02T02:28:16.744Z,87.65
2022-11-02T02:29:16.794Z,87.45
2022-11-02T02:30:16.837Z,87.24
2022-11-02T02:31:16.866Z,87.35
2022-11-02T02:32:16.914Z,86.83
2022-11-02T02:33:16.927Z,87.24
2022-11-02T02:34:16.988Z,87.14
2022-11-02T02:35:17.035Z,87.45
2022-11-02T02:36:17.045Z,87.14
2022-11-02T02:37:17.127Z,87.14
2022-11-02T02:38:17.131Z,86.63
2022-11-02T02:39:17.187Z,86.53
2022-11-02T02:40:17.216Z,86.53
2022-11-02T02:41:17.209Z,86.53
2022-11-02T02:42:17.248Z,86.80
2022-11-02T02:43:17.284Z,86.80
2022-11-02T02:44:17.336Z,86.69
2022-11-02T02:45:17.367Z,87.00
2022-11-02T02:46:17.421Z,87.00
2022-11-02T02:47:17.508Z,87.51
2022-11-02T02:48:17.544Z,87.20
2022-11-02T02:49:17.607Z,87.20
2022-11-02T02:50:17.619Z,87.20
2022-11-02T02:51:17.630Z,87.00
2022-11-02T02:52:17.654Z,87.20
2022-11-02T02:53:17.650Z,87.00
2022-11-02T02:54:17.742Z,87.20
2022-11-02T02:55:17.721Z,87.30
2022-11-02T02:56:17.706Z,87.61
2022-11-02T02:57:17.704Z,87.51
2022-11-02T02:58:17.723Z,87.61
2022-11-02T02:59:17.811Z,87.82
2022-11-02T03:00:17.851Z,87.82
2022-11-02T03:01:18.004Z,87.61
2022-11-02T03:02:18.080Z,87.71
2022-11-02T03:03:17.884Z,87.61
2022-11-02T03:04:17.891Z,87.51
2022-11-02T03:05:17.924Z,87.41
2022-11-02T03:06:17.934Z,87.20
2022-11-02T03:07:17.960Z,87.20
2022-11-02T03:08:17.969Z,87.20
2022-11-02T03:09:18.007Z,87.20
2022-11-02T03:10:18.054Z,87.10
2022-11-02T03:11:18.035Z,87.10
2022-11-02T03:12:18.036Z,87.10
2022-11-02T03:13:18.106Z,86.90
2022-11-02T03:14:18.156Z,86.49
2022-11-02T03:15:18.218Z,86.39
2022-11-02T03:16:18.237Z,85.98
2022-11-02T03:17:18.287Z,85.57
2022-11-02T03:18:18.317Z,85.47
2022-11-02T03:19:18.367Z,85.27
2022-11-02T03:20:18.407Z,85.27
2022-11-02T03:21:18.465Z,85.06
2022-11-02T03:22:18.511Z,85.16
2022-11-02T03:23:18.539Z,85.06
2022-11-02T03:24:18.562Z,84.96
2022-11-02T03:25:18.610Z,84.75
2022-11-02T03:26:18.620Z,84.66
2022-11-02T03:27:18.628Z,84.66
2022-11-02T03:28:18.631Z,84.55
2022-11-02T03:29:18.639Z,84.55
2022-11-02T03:30:18.669Z,83.90
2022-11-02T03:31:18.722Z,83.90
2022-11-02T03:32:18.721Z,83.90
2022-11-02T03:33:18.741Z,83.70
2022-11-02T03:34:18.820Z,83.80
2022-11-02T03:35:18.822Z,83.70
2022-11-02T03:36:18.893Z,83.59
2022-11-02T03:37:18.904Z,83.59
2022-11-02T03:38:18.933Z,83.59
2022-11-02T03:39:18.963Z,83.73
2022-11-02T03:40:19.014Z,83.49
2022-11-02T03:41:19.034Z,83.59
2022-11-02T03:42:19.021Z,83.63
2022-11-02T03:43:19.024Z,83.63
2022-11-02T03:44:19.054Z,83.84
2022-11-02T03:45:19.068Z,83.53
2022-11-02T03:46:19.094Z,83.49
2022-11-02T03:47:19.117Z,83.63
2022-11-02T03:48:19.117Z,83.63
2022-11-02T03:49:19.146Z,83.73
2022-11-02T03:50:19.187Z,83.53
2022-11-02T03:51:19.266Z,83.63
2022-11-02T03:52:19.236Z,83.53
2022-11-02T03:53:19.302Z,83.53
2022-11-02T03:54:19.297Z,83.43
2022-11-02T03:55:19.342Z,83.63
2022-11-02T03:56:19.377Z,83.63
2022-11-02T03:57:19.369Z,83.53
2022-11-02T03:58:19.459Z,83.53
2022-11-02T03:59:19.499Z,83.53
2022-11-02T04:00:19.548Z,83.63
2022-11-02T04:01:19.680Z,83.73
2022-11-02T04:02:19.703Z,83.63
2022-11-02T04:03:19.589Z,83.33
2022-11-02T04:04:19.630Z,83.23
2022-11-02T04:05:19.679Z,83.23
2022-11-02T04:06:19.740Z,83.23
2022-11-02T04:07:19.730Z,83.33
2022-11-02T04:08:19.747Z,83.33
2022-11-02T04:09:19.782Z,83.23
2022-11-02T04:10:19.812Z,83.33
2022-11-02T04:11:19.841Z,83.23
2022-11-02T04:12:19.912Z,83.23
2022-11-02T04:13:19.912Z,83.23
2022-11-02T04:14:19.905Z,83.12
2022-11-02T04:15:19.933Z,83.23
2022-11-02T04:16:26.521Z,83.23
2022-11-02T04:17:20.043Z,83.12
2022-11-02T04:18:20.044Z,83.23
2022-11-02T04:19:20.096Z,83.23
2022-11-02T04:20:20.125Z,83.33
2022-11-02T04:21:20.175Z,83.33
2022-11-02T04:22:20.215Z,83.23
2022-11-02T04:23:20.276Z,83.12
2022-11-02T04:24:20.344Z,83.02
2022-11-02T04:25:20.388Z,83.23
2022-11-02T04:26:20.389Z,83.12
2022-11-02T04:27:21.309Z,83.23
2022-11-02T04:28:20.446Z,83.33
2022-11-02T04:29:20.429Z,83.23
2022-11-02T04:30:20.463Z,83.23
2022-11-02T04:31:20.487Z,83.23
2022-11-02T04:32:20.549Z,83.33
2022-11-02T04:33:20.548Z,83.43
2022-11-02T04:34:20.569Z,83.57
2022-11-02T04:35:20.619Z,83.67
2022-11-02T04:36:20.657Z,83.67
2022-11-02T04:37:20.765Z,83.78
2022-11-02T04:38:20.761Z,83.87
2022-11-02T04:39:20.810Z,83.87
2022-11-02T04:40:20.802Z,83.98
2022-11-02T04:41:20.791Z,83.87
2022-11-02T04:42:20.820Z,83.78
2022-11-02T04:43:20.881Z,83.87
2022-11-02T04:44:24.823Z,83.78
2022-11-02T04:45:20.874Z,83.57
2022-11-02T04:46:20.871Z,83.33
2022-11-02T04:47:20.903Z,83.23
2022-11-02T04:48:20.974Z,83.23
2022-11-02T04:49:20.962Z,83.23
2022-11-02T04:50:20.972Z,83.12
2022-11-02T04:51:21.003Z,83.02
2022-11-02T04:52:21.043Z,82.92
2022-11-02T04:53:21.063Z,82.92
2022-11-02T04:54:21.114Z,82.92
2022-11-02T04:55:21.103Z,83.02
2022-11-02T04:56:21.145Z,83.12
2022-11-02T04:57:21.146Z,82.82
2022-11-02T04:58:21.144Z,82.68
2022-11-02T04:59:21.122Z,82.68
2022-11-02T05:00:21.204Z,82.78
2022-11-02T05:01:21.393Z,82.68
2022-11-02T05:02:21.340Z,82.57
2022-11-02T05:03:21.277Z,82.68
2022-11-02T05:04:21.266Z,82.68
2022-11-02T05:05:21.327Z,82.92
2022-11-02T05:06:21.349Z,82.71
2022-11-02T05:07:21.367Z,82.61
2022-11-02T05:08:21.397Z,82.37
2022-11-02T05:09:21.473Z,82.27
2022-11-02T05:10:21.499Z,82.27
2022-11-02T05:11:21.498Z,82.61
2022-11-02T05:12:24.176Z,82.61
2022-11-02T05:13:21.499Z,82.71
2022-11-02T05:14:21.539Z,82.82
2022-11-02T05:15:21.552Z,82.71
2022-11-02T05:16:21.540Z,82.82
2022-11-02T05:17:21.574Z,83.02
2022-11-02T05:19:21.661Z,83.02
2022-11-02T05:20:21.691Z,83.02
2022-11-02T05:21:21.751Z,83.02
2022-11-02T05:22:21.771Z,82.92
2022-11-02T05:23:21.771Z,82.92
2022-11-02T05:24:21.832Z,82.71
2022-11-02T05:25:21.851Z,82.61
2022-11-02T05:26:21.922Z,82.51
2022-11-02T05:27:21.987Z,82.51
2022-11-02T05:28:22.023Z,82.41
2022-11-02T05:29:22.038Z,82.51
2022-11-02T05:30:22.073Z,82.71
2022-11-02T05:31:22.129Z,82.71
2022-11-02T05:32:22.105Z,82.71
2022-11-02T05:33:25.482Z,82.71
2022-11-02T05:34:22.185Z,82.61
2022-11-02T05:35:22.394Z,82.51
2022-11-02T05:36:22.266Z,82.51
2022-11-02T05:37:22.243Z,82.51
2022-11-02T05:38:22.256Z,82.41
2022-11-02T05:39:22.296Z,82.21
2022-11-02T05:40:22.358Z,82.41
2022-11-02T05:41:22.406Z,82.41
2022-11-02T05:42:22.408Z,82.00
2022-11-02T05:43:22.417Z,81.45
2022-11-02T05:44:22.418Z,81.25
2022-11-02T05:45:24.465Z,81.25
2022-11-02T05:46:22.497Z,81.25
2022-11-02T05:47:22.508Z,81.35
2022-11-02T05:48:22.509Z,81.35
2022-11-02T05:49:22.518Z,81.45
2022-11-02T05:50:22.574Z,81.56
2022-11-02T05:51:22.583Z,81.76
2022-11-02T05:52:22.619Z,81.86
2022-11-02T05:53:22.629Z,81.45
2022-11-02T05:54:22.680Z,81.45
2022-11-02T05:55:22.672Z,81.04
2022-11-02T05:56:25.227Z,80.50
2022-11-02T05:57:22.821Z,80.29
2022-11-02T05:58:22.870Z,80.29
2022-11-02T05:59:22.867Z,80.09
2022-11-02T06:00:22.908Z,80.09
2022-11-02T06:01:22.976Z,80.09
2022-11-02T06:02:25.325Z,80.29
2022-11-02T06:03:22.951Z,80.29
2022-11-02T06:04:23.003Z,80.50
2022-11-02T06:05:23.067Z,80.40
2022-11-02T06:06:23.053Z,80.50
2022-11-02T06:07:23.065Z,80.60
2022-11-02T06:08:23.114Z,80.50
2022-11-02T06:09:23.130Z,80.50
2022-11-02T06:10:23.163Z,80.29
2022-11-02T06:11:23.215Z,80.29
2022-11-02T06:12:23.265Z,80.50
2022-11-02T06:13:23.257Z,80.50
2022-11-02T06:14:23.264Z,80.50
2022-11-02T06:15:23.266Z,80.50
2022-11-02T06:16:23.611Z,80.40
2022-11-02T06:17:23.316Z,80.40
2022-11-02T06:18:23.377Z,80.40
2022-11-02T06:19:23.435Z,80.60
2022-11-02T06:20:23.408Z,80.70
2022-11-02T06:21:23.427Z,80.70
2022-11-02T06:22:23.437Z,80.50
2022-11-02T06:23:23.477Z,80.40
2022-11-02T06:24:23.537Z,80.80
2022-11-02T06:25:23.519Z,80.60
2022-11-02T06:26:23.579Z,80.84
2022-11-02T06:27:23.598Z,80.84
2022-11-02T06:28:23.641Z,80.60
2022-11-02T06:29:23.709Z,80.60
2022-11-02T06:30:23.744Z,80.70
2022-11-02T06:31:23.732Z,80.70
2022-11-02T06:32:23.782Z,80.84
2022-11-02T06:33:23.861Z,80.74
2022-11-02T06:34:23.916Z,80.60
2022-11-02T06:35:23.950Z,80.60
2022-11-02T06:36:23.961Z,80.60
2022-11-02T06:37:23.931Z,80.60
2022-11-02T06:38:23.987Z,80.50
2022-11-02T06:39:24.007Z,80.60
2022-11-02T06:40:26.478Z,80.64
2022-11-02T06:41:24.043Z,80.50
2022-11-02T06:42:24.064Z,80.60
2022-11-02T06:43:24.652Z,80.29
2022-11-02T06:44:24.133Z,80.19
2022-11-02T06:45:24.406Z,79.79
2022-11-02T06:46:24.233Z,79.89
2022-11-02T06:47:24.224Z,80.09
2022-11-02T06:48:25.641Z,79.89
2022-11-02T06:49:24.275Z,79.89
2022-11-02T06:50:24.310Z,79.99
2022-11-02T06:51:24.325Z,79.99
2022-11-02T06:52:24.408Z,80.09
2022-11-02T06:53:24.445Z,79.93
2022-11-02T06:54:24.516Z,79.79
2022-11-02T06:55:24.646Z,79.79
2022-11-02T06:56:24.617Z,79.58
2022-11-02T06:57:24.678Z,79.79
2022-11-02T06:58:24.699Z,79.58
2022-11-02T06:59:24.669Z,79.68
2022-11-02T07:00:24.663Z,79.68
2022-11-02T07:01:24.836Z,79.58
2022-11-02T07:02:24.848Z,79.48
2022-11-02T07:03:24.729Z,79.58
2022-11-02T07:04:24.733Z,79.58
2022-11-02T07:05:24.739Z,79.58
2022-11-02T07:06:24.790Z,79.48
2022-11-02T07:07:24.862Z,79.07
2022-11-02T07:08:24.839Z,79.03
2022-11-02T07:09:24.881Z,78.93
2022-11-02T07:10:24.955Z,78.93
2022-11-02T07:11:25.004Z,79.03
2022-11-02T07:12:25.063Z,78.83
2022-11-02T07:13:25.098Z,78.73
2022-11-02T07:14:25.131Z,78.63
2022-11-02T07:15:25.132Z,78.32
2022-11-02T07:16:25.154Z,78.53
2022-11-02T07:17:31.049Z,78.63
2022-11-02T07:18:25.253Z,78.53
2022-11-02T07:19:25.304Z,78.12
2022-11-02T07:20:25.315Z,77.71
2022-11-02T07:21:25.386Z,77.81
2022-11-02T07:22:25.407Z,77.78
2022-11-02T07:23:25.415Z,77.61
2022-11-02T07:24:25.405Z,77.61
2022-11-02T07:25:25.468Z,77.51
2022-11-02T07:26:25.486Z,77.67
2022-11-02T07:27:25.516Z,77.47
2022-11-02T07:28:25.487Z,77.47
2022-11-02T07:29:25.557Z,77.57
2022-11-02T07:30:25.559Z,77.67
2022-11-02T07:31:25.567Z,77.26
2022-11-02T07:32:25.619Z,77.06
2022-11-02T07:33:25.618Z,77.37
2022-11-02T07:34:25.687Z,77.06
2022-11-02T07:35:25.699Z,76.76
2022-11-02T07:36:25.770Z,76.86
2022-11-02T07:37:25.740Z,76.86
2022-11-02T07:38:25.808Z,76.96
2022-11-02T07:39:25.801Z,77.17
2022-11-02T07:40:25.883Z,77.26
2022-11-02T07:41:25.931Z,77.26
2022-11-02T07:42:25.921Z,77.06
2022-11-02T07:43:25.910Z,77.26
2022-11-02T07:44:25.971Z,76.86
2022-11-02T07:45:26.000Z,76.65
2022-11-02T07:46:26.079Z,76.56
2022-11-02T07:47:26.081Z,76.25
2022-11-02T07:48:26.112Z,76.01
2022-11-02T07:49:26.173Z,76.11
2022-11-02T07:50:26.182Z,76.35
2022-11-02T07:51:26.224Z,76.25
2022-11-02T07:52:26.233Z,76.42
2022-11-02T07:53:26.254Z,76.42
2022-11-02T07:54:26.667Z,75.91
2022-11-02T07:55:26.255Z,76.04
2022-11-02T07:56:26.272Z,76.25
2022-11-02T07:57:26.255Z,76.35
2022-11-02T07:58:26.333Z,76.31
2022-11-02T07:59:26.316Z,76.31
2022-11-02T08:00:26.406Z,76.01
2022-11-02T08:01:26.399Z,76.21
2022-11-02T08:02:26.459Z,76.31
2022-11-02T08:03:26.500Z,76.21
2022-11-02T08:04:26.458Z,76.21
2022-11-02T08:05:26.454Z,76.04
2022-11-02T08:06:26.448Z,75.84
2022-11-02T08:07:26.507Z,75.43
2022-11-02T08:08:26.608Z,75.20
2022-11-02T08:09:26.659Z,75.30
2022-11-02T08:10:26.650Z,75.20
2022-11-02T08:11:26.669Z,75.20
2022-11-02T08:12:26.689Z,74.89
2022-11-02T08:13:26.689Z,74.48
2022-11-02T08:14:26.731Z,74.69
2022-11-02T08:15:26.751Z,74.48
2022-11-02T08:16:26.744Z,74.79
2022-11-02T08:17:26.792Z,74.85
2022-11-02T08:18:26.801Z,74.45
2022-11-02T08:19:26.841Z,73.57
2022-11-02T08:20:26.922Z,73.77
2022-11-02T08:21:26.971Z,73.57
2022-11-02T08:22:27.016Z,73.47
2022-11-02T08:23:27.013Z,73.54
2022-11-02T08:24:27.054Z,73.23
2022-11-02T08:25:27.105Z,73.06
2022-11-02T08:26:27.175Z,73.23
2022-11-02T08:27:27.162Z,72.75
2022-11-02T08:28:27.186Z,72.65
2022-11-02T08:29:27.285Z,72.75
2022-11-02T08:30:27.274Z,72.96
2022-11-02T08:31:27.306Z,72.82
2022-11-02T08:32:27.354Z,72.92
2022-11-02T08:33:27.346Z,72.65
2022-11-02T08:34:27.347Z,72.55
2022-11-02T08:35:27.367Z,72.45
2022-11-02T08:36:27.389Z,72.41
2022-11-02T08:37:27.421Z,72.41
2022-11-02T08:38:27.459Z,72.62
2022-11-02T08:39:27.481Z,72.21
2022-11-02T08:40:27.461Z,72.04
2022-11-02T08:41:27.517Z,72.14
2022-11-02T08:42:27.551Z,72.25
2022-11-02T08:43:27.592Z,72.21
2022-11-02T08:44:27.609Z,72.34
2022-11-02T08:45:27.681Z,72.11
2022-11-02T08:46:27.710Z,72.41
2022-11-02T08:47:27.772Z,71.70
2022-11-02T08:48:27.794Z,71.40
2022-11-02T08:49:27.832Z,71.50
2022-11-02T08:50:27.851Z,71.70
2022-11-02T08:51:27.917Z,71.70
2022-11-02T08:52:27.993Z,71.19
2022-11-02T08:53:28.045Z,71.16
2022-11-02T08:54:28.112Z,71.16
2022-11-02T08:55:28.134Z,70.48
2022-11-02T08:56:28.173Z,70.28
2022-11-02T08:57:28.226Z,70.38
2022-11-02T08:58:28.265Z,70.68
2022-11-02T08:59:28.253Z,70.48
2022-11-02T09:00:28.287Z,70.07
2022-11-02T09:01:28.379Z,70.25
2022-11-02T09:02:28.403Z,69.84
2022-11-02T09:03:28.435Z,69.23
2022-11-02T09:04:28.436Z,69.23
2022-11-02T09:05:28.497Z,69.53
2022-11-02T09:06:28.508Z,69.33
2022-11-02T09:07:28.541Z,68.52
2022-11-02T09:08:28.942Z,69.23
2022-11-02T09:09:28.637Z,69.53
2022-11-02T09:10:28.662Z,69.84
2022-11-02T09:11:28.697Z,69.43
2022-11-02T09:12:28.718Z,69.64
2022-11-02T09:13:28.892Z,69.23
2022-11-02T09:14:28.834Z,68.92
2022-11-02T09:15:28.770Z,68.38
2022-11-02T09:16:28.740Z,68.15
2022-11-02T09:17:28.761Z,67.17
2022-11-02T09:18:28.772Z,65.36
2022-11-02T09:19:28.791Z,64.11
2022-11-02T09:20:28.841Z,64.24
2022-11-02T09:21:28.831Z,64.67
2022-11-02T09:22:28.850Z,66.66
2022-11-02T09:23:28.902Z,67.17
2022-11-02T09:24:28.934Z,66.19
2022-11-02T09:25:28.957Z,65.08
2022-11-02T09:26:28.954Z,64.44
2022-11-02T09:27:29.006Z,64.51
2022-11-02T09:28:29.008Z,63.93
2022-11-02T09:29:29.044Z,65.48
2022-11-02T09:30:29.066Z,65.92
2022-11-02T09:31:29.055Z,65.75
2022-11-02T09:32:29.065Z,65.95
2022-11-02T09:33:29.106Z,65.88
2022-11-02T09:34:29.137Z,66.83
2022-11-02T09:35:29.198Z,67.03
2022-11-02T09:36:29.236Z,67.03
2022-11-02T09:37:29.286Z,67.44
2022-11-02T09:38:29.307Z,67.03
2022-11-02T09:39:29.372Z,66.23
2022-11-02T09:40:29.379Z,64.94
2022-11-02T09:41:29.431Z,64.67
2022-11-02T09:42:29.469Z,64.20
2022-11-02T09:43:32.413Z,65.01
2022-11-02T09:44:29.470Z,65.04
2022-11-02T09:45:29.500Z,65.34
2022-11-02T09:46:29.572Z,64.84
2022-11-02T09:48:30.043Z,65.51
2022-11-02T09:49:29.723Z,65.81
2022-11-02T09:50:29.757Z,66.22
2022-11-02T09:51:29.793Z,65.91
2022-11-02T09:52:29.840Z,65.51
2022-11-02T09:53:29.893Z,65.71
2022-11-02T09:54:29.909Z,65.61
2022-11-02T09:55:29.934Z,65.84
2022-11-02T09:56:29.973Z,66.46
2022-11-02T09:57:29.995Z,66.86
2022-11-02T09:58:30.054Z,66.55
2022-11-02T09:59:30.021Z,66.55
2022-11-02T10:00:30.044Z,65.74
2022-11-02T10:01:30.132Z,65.26
2022-11-02T10:02:30.197Z,66.08
2022-11-02T10:03:30.206Z,65.94
2022-11-02T10:04:30.276Z,66.15
2022-11-02T10:05:30.237Z,65.71
2022-11-02T10:06:30.386Z,65.51
2022-11-02T10:07:30.299Z,65.51
2022-11-02T10:08:30.317Z,65.91
2022-11-02T10:09:30.368Z,65.68
2022-11-02T10:10:30.359Z,65.51
2022-11-02T10:11:30.496Z,66.05
2022-11-02T10:12:30.473Z,66.12
2022-11-02T10:13:30.472Z,65.20
2022-11-02T10:14:30.500Z,65.10
2022-11-02T10:15:30.550Z,65.33
2022-11-02T10:16:30.593Z,65.64
2022-11-02T10:17:30.581Z,65.84
2022-11-02T10:18:30.571Z,65.94
2022-11-02T10:19:30.683Z,66.25
2022-11-02T10:20:30.652Z,66.25
2022-11-02T10:21:30.722Z,65.91
2022-11-02T10:22:30.772Z,65.68
2022-11-02T10:23:30.781Z,63.35
2022-11-02T10:24:30.853Z,63.29
2022-11-02T10:25:30.903Z,60.97
2022-11-02T10:26:30.963Z,61.30
2022-11-02T10:27:31.030Z,60.97
2022-11-02T10:28:31.085Z,60.89
2022-11-02T10:29:31.054Z,62.57
2022-11-02T10:30:31.083Z,63.21
2022-11-02T10:31:31.125Z,62.85
2022-11-02T10:32:31.229Z,62.48
2022-11-02T10:33:31.228Z,63.18
2022-11-02T10:34:31.257Z,63.55
2022-11-02T10:35:41.246Z,64.49
2022-11-02T10:36:31.301Z,64.36
2022-11-02T10:37:31.338Z,65.07
2022-11-02T10:38:31.376Z,65.00
2022-11-02T10:39:31.429Z,65.30
2022-11-02T10:40:31.468Z,65.61
2022-11-02T10:41:31.509Z,65.74
2022-11-02T10:42:31.551Z,65.84
2022-11-02T10:43:31.640Z,66.25
2022-11-02T10:44:31.699Z,66.28
2022-11-02T10:45:31.700Z,66.25
2022-11-02T10:46:31.733Z,63.92
2022-11-02T10:47:31.791Z,63.72
2022-11-02T10:48:31.835Z,64.06
2022-11-02T10:49:31.902Z,64.36
2022-11-02T10:50:31.921Z,64.97
2022-11-02T10:51:31.892Z,63.46
2022-11-02T10:52:31.915Z,61.55
2022-11-02T10:53:47.894Z,60.84
2022-11-02T10:54:34.490Z,60.68
2022-11-02T10:55:32.043Z,60.07
2022-11-02T10:56:32.079Z,58.93
2022-11-02T10:57:32.105Z,60.66
2022-11-02T10:58:32.123Z,63.15
2022-11-02T10:59:32.186Z,64.10
2022-11-02T11:00:32.385Z,64.07
2022-11-02T11:01:32.316Z,62.66
2022-11-02T11:02:32.293Z,62.49
2022-11-02T11:03:32.318Z,62.12
2022-11-02T11:04:32.380Z,60.00
2022-11-02T11:05:32.436Z,60.74
2022-11-02T11:06:32.447Z,60.86
2022-11-02T11:07:32.500Z,62.75
2022-11-02T11:08:32.508Z,63.69
2022-11-02T11:09:32.559Z,63.89
2022-11-02T11:10:32.607Z,63.89
2022-11-02T11:11:32.628Z,61.59
2022-11-02T11:12:32.711Z,60.00
2022-11-02T11:15:48.314Z,63.26
2022-11-02T11:16:32.871Z,63.79
2022-11-02T11:19:40.731Z,63.82
2022-11-02T11:20:32.925Z,64.40
2022-11-02T11:21:33.012Z,62.29
2022-11-02T11:22:33.073Z,61.80
2022-11-02T11:23:33.092Z,63.26
2022-11-02T11:24:33.135Z,63.18
2022-11-02T11:25:33.225Z,62.31
2022-11-02T11:26:33.124Z,61.01
2022-11-02T11:27:33.155Z,60.61
2022-11-02T11:28:33.195Z,60.79
2022-11-02T11:29:33.255Z,60.20
2022-11-02T11:30:59.454Z,60.66
2022-11-02T11:31:33.288Z,61.04
2022-11-02T11:32:33.318Z,60.17
2022-11-02T11:33:33.359Z,58.27
2022-11-02T11:34:33.347Z,57.56
2022-11-02T11:35:33.425Z,58.25
2022-11-02T11:36:33.539Z,59.92
2022-11-02T11:37:33.518Z,60.77
2022-11-02T11:38:33.538Z,60.74
2022-11-02T11:39:33.542Z,59.16
2022-11-02T11:40:33.572Z,59.65
2022-11-02T11:41:33.620Z,61.43
2022-11-02T11:42:33.635Z,61.17
2022-11-02T11:43:33.669Z,59.36
2022-11-02T11:44:33.651Z,58.20
2022-11-02T11:45:33.770Z,59.29
2022-11-02T11:46:33.701Z,60.43
2022-11-02T11:47:33.702Z,60.77
2022-11-02T11:48:33.763Z,61.83
2022-11-02T11:50:08.126Z,62.14
2022-11-02T11:50:33.850Z,62.68
2022-11-02T11:51:33.854Z,63.11
2022-11-02T11:52:33.905Z,63.72
2022-11-02T11:53:33.942Z,63.06
2022-11-02T11:54:33.933Z,61.40
2022-11-02T11:55:33.929Z,62.78
2022-11-02T11:56:33.965Z,62.81
2022-11-02T11:57:34.255Z,62.88
2022-11-02T11:58:34.117Z,60.86
2022-11-02T11:59:34.166Z,60.19
2022-11-02T12:00:34.196Z,61.16
2022-11-02T12:01:34.357Z,61.76
2022-11-02T12:02:36.887Z,60.28
2022-11-02T12:03:34.247Z,61.53
2022-11-02T12:04:34.249Z,61.56
2022-11-02T12:05:34.308Z,60.93
2022-11-02T12:06:34.370Z,60.82
2022-11-02T12:07:34.399Z,59.32
2022-11-02T12:08:34.429Z,59.75
2022-11-02T12:09:34.429Z,59.85
2022-11-02T12:10:34.453Z,59.75
2022-11-02T12:11:34.470Z,59.85
2022-11-02T12:12:34.521Z,60.16
2022-11-02T12:13:34.571Z,58.38
2022-11-02T12:14:34.572Z,57.52
2022-11-02T12:15:34.602Z,57.14
2022-11-02T12:16:34.663Z,56.58
2022-11-02T12:17:34.683Z,56.61
2022-11-02T12:18:34.715Z,56.27
2022-11-02T12:19:34.792Z,57.09
2022-11-02T12:20:34.824Z,57.95
2022-11-02T12:21:34.853Z,57.98
2022-11-02T12:22:34.894Z,56.71
2022-11-02T12:23:34.954Z,55.04
2022-11-02T12:24:35.015Z,54.36
2022-11-02T12:25:35.046Z,54.16
2022-11-02T12:26:35.095Z,54.03
2022-11-02T12:27:35.158Z,53.70
2022-11-02T12:28:35.144Z,53.60
2022-11-02T12:29:35.147Z,53.50
2022-11-02T12:30:35.207Z,53.70
2022-11-02T12:31:35.199Z,53.93
2022-11-02T12:32:35.238Z,54.05
2022-11-02T12:33:35.365Z,54.00
2022-11-02T12:34:35.319Z,53.07
2022-11-02T12:35:35.359Z,52.22
2022-11-02T12:36:35.878Z,51.00
2022-11-02T12:37:41.024Z,51.84
2022-11-02T12:38:35.540Z,52.47
2022-11-02T12:39:35.540Z,52.87
2022-11-02T12:40:35.592Z,52.56
2022-11-02T12:41:35.599Z,52.36
2022-11-02T12:42:37.960Z,52.14
2022-11-02T12:43:35.731Z,52.04
2022-11-02T12:44:35.722Z,51.81
2022-11-02T12:45:37.421Z,50.98
2022-11-02T12:46:39.733Z,50.20
2022-11-02T12:47:35.833Z,49.97
2022-11-02T12:48:35.893Z,50.48
2022-11-02T12:49:36.483Z,50.15
2022-11-02T12:50:36.438Z,49.95
2022-11-02T12:51:35.965Z,49.65
2022-11-02T12:52:35.985Z,49.65
2022-11-02T12:53:36.016Z,50.93
2022-11-02T12:54:41.370Z,50.62
2022-11-02T12:55:38.703Z,50.52
2022-11-02T12:56:36.287Z,51.15
2022-11-02T12:57:36.195Z,50.90
2022-11-02T12:58:36.227Z,50.12